sensor_id;sensor_type;location;lat;lon;timestamp;temperature;humidity
23114;DHT22;11726;50.122;8.832;2023-06-26T00:00:25;22.40;99.90
23114;DHT22;11726;50.122;8.832;2023-06-26T00:02:51;22.30;99.90
23114;DHT22;11726;50.122;8.832;2023-06-26T00:05:18;22.40;99.90
23114;DHT22;11726;50.122;8.832;2023-06-26T00:07:44;22.30;99.90
23114;DHT22;11726;50.122;8.832;2023-06-26T00:10:11;22.20;99.90
23114;DHT22;11726;50.122;8.832;2023-06-26T00:12:37;22.10;99.90
23114;DHT22;11726;50.122;8.832;2023-06-26T00:15:04;21.90;99.90
23114;DHT22;11726;50.122;8.832;2023-06-26T00:17:31;21.80;99.90
23114;DHT22;11726;50.122;8.832;2023-06-26T00:20:03;21.90;99.90
23114;DHT22;11726;50.122;8.832;2023-06-26T00:22:31;21.90;99.90
23114;DHT22;11726;50.122;8.832;2023-06-26T00:24:58;21.90;99.90
23114;DHT22;11726;50.122;8.832;2023-06-26T00:27:24;21.90;99.90
23114;DHT22;11726;50.122;8.832;2023-06-26T00:29:52;22.00;99.90
23114;DHT22;11726;50.122;8.832;2023-06-26T00:32:19;21.90;99.90
23114;DHT22;11726;50.122;8.832;2023-06-26T00:34:45;21.90;99.90
23114;DHT22;11726;50.122;8.832;2023-06-26T00:37:13;21.80;99.90
23114;DHT22;11726;50.122;8.832;2023-06-26T00:39:39;21.60;99.90
23114;DHT22;11726;50.122;8.832;2023-06-26T00:42:06;21.60;99.90
23114;DHT22;11726;50.122;8.832;2023-06-26T00:44:35;21.50;99.90
23114;DHT22;11726;50.122;8.832;2023-06-26T00:47:01;21.40;99.90
23114;DHT22;11726;50.122;8.832;2023-06-26T00:49:28;21.40;99.90
23114;DHT22;11726;50.122;8.832;2023-06-26T00:51:55;21.40;99.90
23114;DHT22;11726;50.122;8.832;2023-06-26T00:54:21;21.40;99.90
23114;DHT22;11726;50.122;8.832;2023-06-26T00:56:48;21.40;99.90
23114;DHT22;11726;50.122;8.832;2023-06-26T00:59:15;21.30;99.90
23114;DHT22;11726;50.122;8.832;2023-06-26T01:01:41;21.20;99.90
23114;DHT22;11726;50.122;8.832;2023-06-26T01:04:08;21.20;99.90
23114;DHT22;11726;50.122;8.832;2023-06-26T01:06:45;21.10;99.90
23114;DHT22;11726;50.122;8.832;2023-06-26T01:09:16;21.10;99.90
23114;DHT22;11726;50.122;8.832;2023-06-26T01:11:43;21.20;99.90
23114;DHT22;11726;50.122;8.832;2023-06-26T01:14:09;21.10;99.90
23114;DHT22;11726;50.122;8.832;2023-06-26T01:16:36;21.00;99.90
23114;DHT22;11726;50.122;8.832;2023-06-26T01:19:05;21.00;99.90
23114;DHT22;11726;50.122;8.832;2023-06-26T01:21:35;20.90;99.90
23114;DHT22;11726;50.122;8.832;2023-06-26T01:24:20;20.90;99.90
23114;DHT22;11726;50.122;8.832;2023-06-26T01:26:53;20.80;99.90
23114;DHT22;11726;50.122;8.832;2023-06-26T01:29:20;20.90;99.90
23114;DHT22;11726;50.122;8.832;2023-06-26T01:31:49;22.00;99.90
23114;DHT22;11726;50.122;8.832;2023-06-26T01:34:16;22.80;99.90
23114;DHT22;11726;50.122;8.832;2023-06-26T01:36:44;22.30;99.90
23114;DHT22;11726;50.122;8.832;2023-06-26T01:39:14;21.70;99.90
23114;DHT22;11726;50.122;8.832;2023-06-26T01:41:41;21.20;99.90
23114;DHT22;11726;50.122;8.832;2023-06-26T01:49:20;20.70;99.90
23114;DHT22;11726;50.122;8.832;2023-06-26T01:51:51;20.60;99.90
23114;DHT22;11726;50.122;8.832;2023-06-26T01:54:21;20.50;99.90
23114;DHT22;11726;50.122;8.832;2023-06-26T01:56:50;20.40;99.90
23114;DHT22;11726;50.122;8.832;2023-06-26T01:59:19;20.30;99.90
23114;DHT22;11726;50.122;8.832;2023-06-26T02:01:47;20.30;99.90
23114;DHT22;11726;50.122;8.832;2023-06-26T02:04:13;20.20;99.90
23114;DHT22;11726;50.122;8.832;2023-06-26T02:06:40;20.20;99.90
23114;DHT22;11726;50.122;8.832;2023-06-26T02:09:06;20.20;99.90
23114;DHT22;11726;50.122;8.832;2023-06-26T02:11:34;20.10;99.90
23114;DHT22;11726;50.122;8.832;2023-06-26T02:14:00;20.30;99.90
23114;DHT22;11726;50.122;8.832;2023-06-26T02:16:27;20.40;99.90
23114;DHT22;11726;50.122;8.832;2023-06-26T02:18:53;20.30;99.90
23114;DHT22;11726;50.122;8.832;2023-06-26T02:21:20;20.00;99.90
23114;DHT22;11726;50.122;8.832;2023-06-26T02:23:46;19.90;99.90
23114;DHT22;11726;50.122;8.832;2023-06-26T02:26:13;20.10;99.90
23114;DHT22;11726;50.122;8.832;2023-06-26T02:28:39;20.20;99.90
23114;DHT22;11726;50.122;8.832;2023-06-26T02:31:06;20.30;99.90
23114;DHT22;11726;50.122;8.832;2023-06-26T02:33:32;20.40;99.90
23114;DHT22;11726;50.122;8.832;2023-06-26T02:35:59;20.40;99.90
23114;DHT22;11726;50.122;8.832;2023-06-26T02:38:25;20.40;99.90
23114;DHT22;11726;50.122;8.832;2023-06-26T02:40:52;20.40;99.90
23114;DHT22;11726;50.122;8.832;2023-06-26T02:43:18;20.30;99.90
23114;DHT22;11726;50.122;8.832;2023-06-26T02:45:45;20.30;99.90
23114;DHT22;11726;50.122;8.832;2023-06-26T02:48:12;20.20;99.90
23114;DHT22;11726;50.122;8.832;2023-06-26T02:50:38;20.20;99.90
23114;DHT22;11726;50.122;8.832;2023-06-26T02:53:05;20.10;99.90
23114;DHT22;11726;50.122;8.832;2023-06-26T02:55:33;20.10;99.90
23114;DHT22;11726;50.122;8.832;2023-06-26T02:57:59;19.90;99.90
23114;DHT22;11726;50.122;8.832;2023-06-26T03:00:26;19.90;99.90
23114;DHT22;11726;50.122;8.832;2023-06-26T03:02:52;19.90;99.90
23114;DHT22;11726;50.122;8.832;2023-06-26T03:05:19;19.90;99.90
23114;DHT22;11726;50.122;8.832;2023-06-26T03:07:45;19.90;99.90
23114;DHT22;11726;50.122;8.832;2023-06-26T03:10:12;19.90;99.90
23114;DHT22;11726;50.122;8.832;2023-06-26T03:12:38;19.90;99.90
23114;DHT22;11726;50.122;8.832;2023-06-26T03:15:05;20.00;99.90
23114;DHT22;11726;50.122;8.832;2023-06-26T03:17:32;19.80;99.90
23114;DHT22;11726;50.122;8.832;2023-06-26T03:19:58;19.80;99.90
23114;DHT22;11726;50.122;8.832;2023-06-26T03:22:25;19.70;99.90
23114;DHT22;11726;50.122;8.832;2023-06-26T03:24:51;19.70;99.90
23114;DHT22;11726;50.122;8.832;2023-06-26T03:27:18;19.70;99.90
23114;DHT22;11726;50.122;8.832;2023-06-26T03:29:46;19.50;99.90
23114;DHT22;11726;50.122;8.832;2023-06-26T03:32:12;19.60;99.90
23114;DHT22;11726;50.122;8.832;2023-06-26T03:34:39;19.70;99.90
23114;DHT22;11726;50.122;8.832;2023-06-26T03:37:06;19.60;99.90
23114;DHT22;11726;50.122;8.832;2023-06-26T03:39:32;19.60;99.90
23114;DHT22;11726;50.122;8.832;2023-06-26T03:41:59;19.50;99.90
23114;DHT22;11726;50.122;8.832;2023-06-26T03:44:27;19.40;99.90
23114;DHT22;11726;50.122;8.832;2023-06-26T03:46:54;19.40;99.90
23114;DHT22;11726;50.122;8.832;2023-06-26T03:49:21;19.50;99.90
23114;DHT22;11726;50.122;8.832;2023-06-26T03:51:47;19.50;99.90
23114;DHT22;11726;50.122;8.832;2023-06-26T03:54:14;19.60;99.90
23114;DHT22;11726;50.122;8.832;2023-06-26T03:56:41;19.60;99.90
23114;DHT22;11726;50.122;8.832;2023-06-26T03:59:07;19.60;99.90
23114;DHT22;11726;50.122;8.832;2023-06-26T04:01:35;19.70;99.90
23114;DHT22;11726;50.122;8.832;2023-06-26T04:04:02;19.70;99.90
23114;DHT22;11726;50.122;8.832;2023-06-26T04:06:29;19.70;99.90
23114;DHT22;11726;50.122;8.832;2023-06-26T04:08:57;19.60;99.90
23114;DHT22;11726;50.122;8.832;2023-06-26T04:11:24;19.40;99.90
23114;DHT22;11726;50.122;8.832;2023-06-26T04:13:51;19.60;99.90
23114;DHT22;11726;50.122;8.832;2023-06-26T04:16:18;19.70;99.90
23114;DHT22;11726;50.122;8.832;2023-06-26T04:18:45;19.60;99.90
23114;DHT22;11726;50.122;8.832;2023-06-26T04:21:12;19.60;99.90
23114;DHT22;11726;50.122;8.832;2023-06-26T04:23:39;19.70;99.90
23114;DHT22;11726;50.122;8.832;2023-06-26T04:26:06;19.70;99.90
23114;DHT22;11726;50.122;8.832;2023-06-26T04:28:33;19.70;99.90
23114;DHT22;11726;50.122;8.832;2023-06-26T04:31:03;19.80;99.90
23114;DHT22;11726;50.122;8.832;2023-06-26T04:33:30;19.80;99.90
23114;DHT22;11726;50.122;8.832;2023-06-26T04:35:57;19.80;99.90
23114;DHT22;11726;50.122;8.832;2023-06-26T04:38:24;20.00;99.90
23114;DHT22;11726;50.122;8.832;2023-06-26T04:40:50;20.00;99.90
23114;DHT22;11726;50.122;8.832;2023-06-26T04:43:17;20.00;99.90
23114;DHT22;11726;50.122;8.832;2023-06-26T04:45:43;19.90;99.90
23114;DHT22;11726;50.122;8.832;2023-06-26T04:48:11;20.00;99.90
23114;DHT22;11726;50.122;8.832;2023-06-26T04:50:37;20.00;99.90
23114;DHT22;11726;50.122;8.832;2023-06-26T04:53:04;20.20;99.90
23114;DHT22;11726;50.122;8.832;2023-06-26T04:55:31;20.30;99.90
23114;DHT22;11726;50.122;8.832;2023-06-26T04:57:57;20.20;99.90
23114;DHT22;11726;50.122;8.832;2023-06-26T05:00:24;20.20;99.90
23114;DHT22;11726;50.122;8.832;2023-06-26T05:02:51;20.30;99.90
23114;DHT22;11726;50.122;8.832;2023-06-26T05:05:27;20.50;99.90
23114;DHT22;11726;50.122;8.832;2023-06-26T05:07:54;20.40;99.90
23114;DHT22;11726;50.122;8.832;2023-06-26T05:10:21;20.50;99.90
23114;DHT22;11726;50.122;8.832;2023-06-26T05:12:48;20.50;99.90
23114;DHT22;11726;50.122;8.832;2023-06-26T05:15:15;20.60;99.90
23114;DHT22;11726;50.122;8.832;2023-06-26T05:17:41;20.60;99.90
23114;DHT22;11726;50.122;8.832;2023-06-26T05:20:08;20.60;99.90
23114;DHT22;11726;50.122;8.832;2023-06-26T05:22:35;20.70;99.90
23114;DHT22;11726;50.122;8.832;2023-06-26T05:25:04;20.90;99.90
23114;DHT22;11726;50.122;8.832;2023-06-26T05:27:31;20.90;99.90
23114;DHT22;11726;50.122;8.832;2023-06-26T05:29:57;20.90;99.90
23114;DHT22;11726;50.122;8.832;2023-06-26T05:32:24;21.00;99.90
23114;DHT22;11726;50.122;8.832;2023-06-26T05:34:51;21.00;99.90
23114;DHT22;11726;50.122;8.832;2023-06-26T05:37:20;21.10;99.90
23114;DHT22;11726;50.122;8.832;2023-06-26T05:39:47;21.10;99.90
23114;DHT22;11726;50.122;8.832;2023-06-26T05:42:14;21.10;99.90
23114;DHT22;11726;50.122;8.832;2023-06-26T05:44:41;21.20;99.90
23114;DHT22;11726;50.122;8.832;2023-06-26T05:47:07;21.30;99.90
23114;DHT22;11726;50.122;8.832;2023-06-26T05:49:34;21.40;99.90
23114;DHT22;11726;50.122;8.832;2023-06-26T05:52:01;21.60;99.90
23114;DHT22;11726;50.122;8.832;2023-06-26T05:54:27;21.60;99.90
23114;DHT22;11726;50.122;8.832;2023-06-26T05:56:55;21.60;99.90
23114;DHT22;11726;50.122;8.832;2023-06-26T05:59:22;21.80;99.90
23114;DHT22;11726;50.122;8.832;2023-06-26T06:01:49;21.90;99.90
23114;DHT22;11726;50.122;8.832;2023-06-26T06:04:16;21.90;99.90
23114;DHT22;11726;50.122;8.832;2023-06-26T06:06:42;21.80;99.90
23114;DHT22;11726;50.122;8.832;2023-06-26T06:09:09;21.80;99.90
23114;DHT22;11726;50.122;8.832;2023-06-26T06:11:36;22.00;99.90
23114;DHT22;11726;50.122;8.832;2023-06-26T06:14:03;22.20;99.90
23114;DHT22;11726;50.122;8.832;2023-06-26T06:16:30;22.20;99.90
23114;DHT22;11726;50.122;8.832;2023-06-26T06:18:57;22.30;99.90
23114;DHT22;11726;50.122;8.832;2023-06-26T06:21:23;22.50;99.90
23114;DHT22;11726;50.122;8.832;2023-06-26T06:23:50;22.60;99.90
23114;DHT22;11726;50.122;8.832;2023-06-26T06:26:17;22.70;99.90
23114;DHT22;11726;50.122;8.832;2023-06-26T06:28:43;22.80;99.90
23114;DHT22;11726;50.122;8.832;2023-06-26T06:31:10;23.00;99.90
23114;DHT22;11726;50.122;8.832;2023-06-26T06:33:36;23.20;99.90
23114;DHT22;11726;50.122;8.832;2023-06-26T06:36:04;23.30;99.90
23114;DHT22;11726;50.122;8.832;2023-06-26T06:38:31;23.30;99.90
23114;DHT22;11726;50.122;8.832;2023-06-26T06:40:58;23.50;99.90
23114;DHT22;11726;50.122;8.832;2023-06-26T06:43:25;23.50;99.90
23114;DHT22;11726;50.122;8.832;2023-06-26T06:45:51;23.70;99.90
23114;DHT22;11726;50.122;8.832;2023-06-26T06:48:18;23.80;99.90
23114;DHT22;11726;50.122;8.832;2023-06-26T06:50:44;24.00;99.90
23114;DHT22;11726;50.122;8.832;2023-06-26T06:53:11;24.10;99.90
23114;DHT22;11726;50.122;8.832;2023-06-26T06:55:37;24.20;99.90
23114;DHT22;11726;50.122;8.832;2023-06-26T06:58:04;24.40;99.90
23114;DHT22;11726;50.122;8.832;2023-06-26T07:00:31;24.30;99.90
23114;DHT22;11726;50.122;8.832;2023-06-26T07:02:58;24.30;99.90
23114;DHT22;11726;50.122;8.832;2023-06-26T07:05:26;24.50;99.90
23114;DHT22;11726;50.122;8.832;2023-06-26T07:07:53;24.60;99.90
23114;DHT22;11726;50.122;8.832;2023-06-26T07:10:20;24.70;99.90
23114;DHT22;11726;50.122;8.832;2023-06-26T07:12:46;24.70;99.90
23114;DHT22;11726;50.122;8.832;2023-06-26T07:15:13;24.70;99.90
23114;DHT22;11726;50.122;8.832;2023-06-26T07:17:40;24.90;99.90
23114;DHT22;11726;50.122;8.832;2023-06-26T07:20:06;25.00;99.90
23114;DHT22;11726;50.122;8.832;2023-06-26T07:22:35;25.00;99.90
23114;DHT22;11726;50.122;8.832;2023-06-26T07:25:02;25.10;99.90
23114;DHT22;11726;50.122;8.832;2023-06-26T07:27:30;25.30;99.90
23114;DHT22;11726;50.122;8.832;2023-06-26T07:29:57;25.50;99.90
23114;DHT22;11726;50.122;8.832;2023-06-26T07:32:24;25.50;99.10
23114;DHT22;11726;50.122;8.832;2023-06-26T07:34:50;25.50;98.90
23114;DHT22;11726;50.122;8.832;2023-06-26T07:37:17;25.40;98.60
23114;DHT22;11726;50.122;8.832;2023-06-26T07:39:43;25.50;98.50
23114;DHT22;11726;50.122;8.832;2023-06-26T07:42:10;25.70;98.50
23114;DHT22;11726;50.122;8.832;2023-06-26T07:44:37;25.70;98.70
23114;DHT22;11726;50.122;8.832;2023-06-26T07:47:03;25.80;97.80
23114;DHT22;11726;50.122;8.832;2023-06-26T07:49:30;25.90;98.30
23114;DHT22;11726;50.122;8.832;2023-06-26T07:51:57;26.00;97.90
23114;DHT22;11726;50.122;8.832;2023-06-26T07:54:23;26.20;97.40
23114;DHT22;11726;50.122;8.832;2023-06-26T07:56:56;26.10;97.20
23114;DHT22;11726;50.122;8.832;2023-06-26T07:59:24;26.10;96.60
23114;DHT22;11726;50.122;8.832;2023-06-26T08:01:51;26.20;96.50
23114;DHT22;11726;50.122;8.832;2023-06-26T08:04:19;26.20;96.40
23114;DHT22;11726;50.122;8.832;2023-06-26T08:06:50;26.30;95.70
23114;DHT22;11726;50.122;8.832;2023-06-26T08:09:18;26.50;96.30
23114;DHT22;11726;50.122;8.832;2023-06-26T08:11:45;26.40;96.20
23114;DHT22;11726;50.122;8.832;2023-06-26T08:14:12;26.60;96.80
23114;DHT22;11726;50.122;8.832;2023-06-26T08:16:42;26.70;95.30
23114;DHT22;11726;50.122;8.832;2023-06-26T08:19:09;26.70;95.60
23114;DHT22;11726;50.122;8.832;2023-06-26T08:21:36;26.90;95.40
23114;DHT22;11726;50.122;8.832;2023-06-26T08:24:02;27.10;95.00
23114;DHT22;11726;50.122;8.832;2023-06-26T08:26:29;27.10;93.30
23114;DHT22;11726;50.122;8.832;2023-06-26T08:28:56;27.30;93.00
23114;DHT22;11726;50.122;8.832;2023-06-26T08:31:22;27.50;92.50
23114;DHT22;11726;50.122;8.832;2023-06-26T08:33:49;27.70;92.20
23114;DHT22;11726;50.122;8.832;2023-06-26T08:36:16;27.90;91.90
23114;DHT22;11726;50.122;8.832;2023-06-26T08:38:42;27.70;91.50
23114;DHT22;11726;50.122;8.832;2023-06-26T08:41:09;27.50;91.70
23114;DHT22;11726;50.122;8.832;2023-06-26T08:43:36;27.70;91.40
23114;DHT22;11726;50.122;8.832;2023-06-26T08:46:03;27.80;91.30
23114;DHT22;11726;50.122;8.832;2023-06-26T08:48:31;27.90;91.00
23114;DHT22;11726;50.122;8.832;2023-06-26T08:51:01;27.90;90.50
23114;DHT22;11726;50.122;8.832;2023-06-26T08:53:43;28.00;90.90
23114;DHT22;11726;50.122;8.832;2023-06-26T08:56:16;27.90;90.30
23114;DHT22;11726;50.122;8.832;2023-06-26T08:58:44;27.70;90.40
23114;DHT22;11726;50.122;8.832;2023-06-26T09:01:10;27.60;90.80
23114;DHT22;11726;50.122;8.832;2023-06-26T09:03:37;27.70;90.90
23114;DHT22;11726;50.122;8.832;2023-06-26T09:06:04;27.90;90.20
23114;DHT22;11726;50.122;8.832;2023-06-26T09:08:31;28.20;90.60
23114;DHT22;11726;50.122;8.832;2023-06-26T09:10:57;28.40;90.00
23114;DHT22;11726;50.122;8.832;2023-06-26T09:13:24;28.20;90.00
23114;DHT22;11726;50.122;8.832;2023-06-26T09:15:55;28.20;89.90
23114;DHT22;11726;50.122;8.832;2023-06-26T09:18:22;28.00;90.30
23114;DHT22;11726;50.122;8.832;2023-06-26T09:20:49;28.00;90.30
23114;DHT22;11726;50.122;8.832;2023-06-26T09:23:16;28.00;90.00
23114;DHT22;11726;50.122;8.832;2023-06-26T09:25:43;27.80;89.70
23114;DHT22;11726;50.122;8.832;2023-06-26T09:28:11;27.90;90.30
23114;DHT22;11726;50.122;8.832;2023-06-26T09:30:38;28.10;90.00
23114;DHT22;11726;50.122;8.832;2023-06-26T09:33:20;28.20;89.20
23114;DHT22;11726;50.122;8.832;2023-06-26T09:35:47;28.20;88.60
23114;DHT22;11726;50.122;8.832;2023-06-26T09:38:14;28.20;89.10
23114;DHT22;11726;50.122;8.832;2023-06-26T09:40:41;28.60;90.10
23114;DHT22;11726;50.122;8.832;2023-06-26T09:43:09;28.90;87.40
23114;DHT22;11726;50.122;8.832;2023-06-26T09:45:35;28.80;85.50
23114;DHT22;11726;50.122;8.832;2023-06-26T09:48:06;29.00;85.00
23114;DHT22;11726;50.122;8.832;2023-06-26T09:50:35;28.90;84.70
23114;DHT22;11726;50.122;8.832;2023-06-26T09:53:13;28.80;85.20
23114;DHT22;11726;50.122;8.832;2023-06-26T09:55:40;29.00;86.10
23114;DHT22;11726;50.122;8.832;2023-06-26T09:58:10;28.90;84.20
23114;DHT22;11726;50.122;8.832;2023-06-26T10:00:41;29.10;85.50
23114;DHT22;11726;50.122;8.832;2023-06-26T10:03:12;29.40;84.10
23114;DHT22;11726;50.122;8.832;2023-06-26T10:05:40;29.40;83.50
23114;DHT22;11726;50.122;8.832;2023-06-26T10:08:06;29.70;83.40
23114;DHT22;11726;50.122;8.832;2023-06-26T10:10:35;29.70;83.80
23114;DHT22;11726;50.122;8.832;2023-06-26T10:13:05;29.70;81.80
23114;DHT22;11726;50.122;8.832;2023-06-26T10:15:33;29.40;82.20
23114;DHT22;11726;50.122;8.832;2023-06-26T10:18:01;29.30;83.00
23114;DHT22;11726;50.122;8.832;2023-06-26T10:20:28;29.30;82.90
23114;DHT22;11726;50.122;8.832;2023-06-26T10:22:56;29.20;83.70
23114;DHT22;11726;50.122;8.832;2023-06-26T10:25:24;29.20;83.70
23114;DHT22;11726;50.122;8.832;2023-06-26T10:27:53;29.20;84.90
23114;DHT22;11726;50.122;8.832;2023-06-26T10:30:22;29.50;84.20
23114;DHT22;11726;50.122;8.832;2023-06-26T10:32:49;30.40;82.10
23114;DHT22;11726;50.122;8.832;2023-06-26T10:35:16;31.10;79.00
23114;DHT22;11726;50.122;8.832;2023-06-26T10:37:44;31.40;77.70
23114;DHT22;11726;50.122;8.832;2023-06-26T10:40:11;31.10;79.70
23114;DHT22;11726;50.122;8.832;2023-06-26T10:42:39;31.10;78.60
23114;DHT22;11726;50.122;8.832;2023-06-26T10:45:09;31.30;77.50
23114;DHT22;11726;50.122;8.832;2023-06-26T10:47:38;30.80;78.70
23114;DHT22;11726;50.122;8.832;2023-06-26T10:50:20;30.10;80.40
23114;DHT22;11726;50.122;8.832;2023-06-26T10:56:02;29.20;84.80
23114;DHT22;11726;50.122;8.832;2023-06-26T10:58:33;29.10;85.40
23114;DHT22;11726;50.122;8.832;2023-06-26T11:04:00;29.50;84.60
23114;DHT22;11726;50.122;8.832;2023-06-26T11:06:31;29.80;84.40
23114;DHT22;11726;50.122;8.832;2023-06-26T11:09:08;29.90;82.80
23114;DHT22;11726;50.122;8.832;2023-06-26T11:14:21;29.70;82.40
23114;DHT22;11726;50.122;8.832;2023-06-26T11:16:48;29.80;82.60
23114;DHT22;11726;50.122;8.832;2023-06-26T11:19:19;30.00;80.90
23114;DHT22;11726;50.122;8.832;2023-06-26T11:21:47;30.10;80.00
23114;DHT22;11726;50.122;8.832;2023-06-26T11:24:14;30.10;79.00
23114;DHT22;11726;50.122;8.832;2023-06-26T11:26:41;29.70;79.10
23114;DHT22;11726;50.122;8.832;2023-06-26T11:29:08;30.00;78.60
23114;DHT22;11726;50.122;8.832;2023-06-26T11:31:36;30.60;77.60
23114;DHT22;11726;50.122;8.832;2023-06-26T11:34:05;30.80;74.00
23114;DHT22;11726;50.122;8.832;2023-06-26T11:36:31;30.00;75.70
23114;DHT22;11726;50.122;8.832;2023-06-26T11:39:00;30.30;76.20
23114;DHT22;11726;50.122;8.832;2023-06-26T11:41:27;30.20;75.90
23114;DHT22;11726;50.122;8.832;2023-06-26T11:43:54;30.40;75.70
23114;DHT22;11726;50.122;8.832;2023-06-26T11:46:21;30.70;74.90
23114;DHT22;11726;50.122;8.832;2023-06-26T11:48:48;30.70;74.30
23114;DHT22;11726;50.122;8.832;2023-06-26T11:51:15;30.70;73.80
23114;DHT22;11726;50.122;8.832;2023-06-26T11:53:42;30.30;75.60
23114;DHT22;11726;50.122;8.832;2023-06-26T11:56:09;30.20;76.30
23114;DHT22;11726;50.122;8.832;2023-06-26T11:58:37;30.40;75.90
23114;DHT22;11726;50.122;8.832;2023-06-26T12:01:18;30.70;75.60
23114;DHT22;11726;50.122;8.832;2023-06-26T12:03:45;29.90;75.80
23114;DHT22;11726;50.122;8.832;2023-06-26T12:06:12;30.10;76.90
23114;DHT22;11726;50.122;8.832;2023-06-26T12:08:38;30.60;75.80
23114;DHT22;11726;50.122;8.832;2023-06-26T12:11:05;30.50;75.80
23114;DHT22;11726;50.122;8.832;2023-06-26T12:13:33;30.20;75.40
23114;DHT22;11726;50.122;8.832;2023-06-26T12:16:00;30.10;76.60
23114;DHT22;11726;50.122;8.832;2023-06-26T12:18:32;30.00;76.70
23114;DHT22;11726;50.122;8.832;2023-06-26T12:20:59;30.40;76.30
23114;DHT22;11726;50.122;8.832;2023-06-26T12:23:31;30.40;75.90
23114;DHT22;11726;50.122;8.832;2023-06-26T12:26:15;30.50;76.50
23114;DHT22;11726;50.122;8.832;2023-06-26T12:28:43;30.30;77.10
23114;DHT22;11726;50.122;8.832;2023-06-26T12:31:17;30.20;78.20
23114;DHT22;11726;50.122;8.832;2023-06-26T12:33:46;30.00;77.80
23114;DHT22;11726;50.122;8.832;2023-06-26T12:36:13;29.80;78.40
23114;DHT22;11726;50.122;8.832;2023-06-26T12:38:40;29.70;78.10
23114;DHT22;11726;50.122;8.832;2023-06-26T12:41:13;29.50;79.30
23114;DHT22;11726;50.122;8.832;2023-06-26T12:43:41;29.30;80.80
23114;DHT22;11726;50.122;8.832;2023-06-26T12:46:08;28.90;81.90
23114;DHT22;11726;50.122;8.832;2023-06-26T12:48:39;28.80;83.20
23114;DHT22;11726;50.122;8.832;2023-06-26T12:51:16;28.90;83.80
23114;DHT22;11726;50.122;8.832;2023-06-26T12:53:42;29.30;85.40
23114;DHT22;11726;50.122;8.832;2023-06-26T12:56:09;30.00;83.30
23114;DHT22;11726;50.122;8.832;2023-06-26T12:58:37;29.70;81.60
23114;DHT22;11726;50.122;8.832;2023-06-26T13:01:04;29.50;81.90
23114;DHT22;11726;50.122;8.832;2023-06-26T13:03:31;29.40;82.10
23114;DHT22;11726;50.122;8.832;2023-06-26T13:06:00;29.80;82.90
23114;DHT22;11726;50.122;8.832;2023-06-26T13:08:27;30.30;81.40
23114;DHT22;11726;50.122;8.832;2023-06-26T13:10:55;29.70;81.80
23114;DHT22;11726;50.122;8.832;2023-06-26T13:13:22;29.80;82.90
23114;DHT22;11726;50.122;8.832;2023-06-26T13:15:48;29.50;82.10
23114;DHT22;11726;50.122;8.832;2023-06-26T13:18:15;29.10;83.10
23114;DHT22;11726;50.122;8.832;2023-06-26T13:20:42;29.40;83.50
23114;DHT22;11726;50.122;8.832;2023-06-26T13:23:08;29.20;82.50
23114;DHT22;11726;50.122;8.832;2023-06-26T13:25:35;29.60;82.60
23114;DHT22;11726;50.122;8.832;2023-06-26T13:28:01;29.60;82.90
23114;DHT22;11726;50.122;8.832;2023-06-26T13:30:28;29.30;82.00
23114;DHT22;11726;50.122;8.832;2023-06-26T13:32:56;29.30;83.60
23114;DHT22;11726;50.122;8.832;2023-06-26T13:35:22;29.50;81.60
23114;DHT22;11726;50.122;8.832;2023-06-26T13:37:49;29.80;81.70
23114;DHT22;11726;50.122;8.832;2023-06-26T13:40:16;30.40;81.60
23114;DHT22;11726;50.122;8.832;2023-06-26T13:42:43;30.40;80.00
23114;DHT22;11726;50.122;8.832;2023-06-26T13:45:10;29.60;80.40
23114;DHT22;11726;50.122;8.832;2023-06-26T13:47:56;29.80;80.80
23114;DHT22;11726;50.122;8.832;2023-06-26T13:50:23;29.40;81.30
23114;DHT22;11726;50.122;8.832;2023-06-26T13:52:50;29.60;81.00
23114;DHT22;11726;50.122;8.832;2023-06-26T13:55:17;29.50;81.00
23114;DHT22;11726;50.122;8.832;2023-06-26T13:57:43;29.20;81.50
23114;DHT22;11726;50.122;8.832;2023-06-26T14:00:10;28.80;81.30
23114;DHT22;11726;50.122;8.832;2023-06-26T14:02:38;28.70;81.80
23114;DHT22;11726;50.122;8.832;2023-06-26T14:05:05;29.00;82.20
23114;DHT22;11726;50.122;8.832;2023-06-26T14:07:32;29.10;81.60
23114;DHT22;11726;50.122;8.832;2023-06-26T14:09:59;28.60;80.60
23114;DHT22;11726;50.122;8.832;2023-06-26T14:12:25;28.70;82.10
23114;DHT22;11726;50.122;8.832;2023-06-26T14:14:52;28.80;81.30
23114;DHT22;11726;50.122;8.832;2023-06-26T14:17:19;29.20;80.60
23114;DHT22;11726;50.122;8.832;2023-06-26T14:19:45;29.70;79.30
23114;DHT22;11726;50.122;8.832;2023-06-26T14:22:12;30.10;77.90
23114;DHT22;11726;50.122;8.832;2023-06-26T14:24:39;29.80;77.00
23114;DHT22;11726;50.122;8.832;2023-06-26T14:27:06;29.60;76.30
23114;DHT22;11726;50.122;8.832;2023-06-26T14:29:32;29.50;75.30
23114;DHT22;11726;50.122;8.832;2023-06-26T14:31:59;29.10;75.90
23114;DHT22;11726;50.122;8.832;2023-06-26T14:34:26;29.30;74.80
23114;DHT22;11726;50.122;8.832;2023-06-26T14:36:52;29.80;74.30
23114;DHT22;11726;50.122;8.832;2023-06-26T14:39:19;29.50;73.30
23114;DHT22;11726;50.122;8.832;2023-06-26T14:41:46;28.90;73.70
23114;DHT22;11726;50.122;8.832;2023-06-26T14:44:15;28.80;74.40
23114;DHT22;11726;50.122;8.832;2023-06-26T14:46:42;28.90;74.80
23114;DHT22;11726;50.122;8.832;2023-06-26T14:49:09;28.70;73.10
23114;DHT22;11726;50.122;8.832;2023-06-26T14:51:36;29.20;71.90
23114;DHT22;11726;50.122;8.832;2023-06-26T14:54:04;28.90;72.00
23114;DHT22;11726;50.122;8.832;2023-06-26T14:56:31;28.90;71.70
23114;DHT22;11726;50.122;8.832;2023-06-26T14:58:58;29.10;70.10
23114;DHT22;11726;50.122;8.832;2023-06-26T15:01:24;28.90;69.10
23114;DHT22;11726;50.122;8.832;2023-06-26T15:03:51;28.70;68.60
23114;DHT22;11726;50.122;8.832;2023-06-26T15:06:18;29.20;68.20
23114;DHT22;11726;50.122;8.832;2023-06-26T15:08:44;28.70;67.90
23114;DHT22;11726;50.122;8.832;2023-06-26T15:11:11;28.70;68.00
23114;DHT22;11726;50.122;8.832;2023-06-26T15:13:38;28.50;66.80
23114;DHT22;11726;50.122;8.832;2023-06-26T15:16:04;28.80;66.10
23114;DHT22;11726;50.122;8.832;2023-06-26T15:18:31;28.70;65.90
23114;DHT22;11726;50.122;8.832;2023-06-26T15:20:58;29.00;65.50
23114;DHT22;11726;50.122;8.832;2023-06-26T15:23:24;29.20;63.70
23114;DHT22;11726;50.122;8.832;2023-06-26T15:25:53;28.90;64.20
23114;DHT22;11726;50.122;8.832;2023-06-26T15:28:20;28.90;64.30
23114;DHT22;11726;50.122;8.832;2023-06-26T15:30:47;28.10;64.70
23114;DHT22;11726;50.122;8.832;2023-06-26T15:33:14;27.80;65.80
23114;DHT22;11726;50.122;8.832;2023-06-26T15:35:40;28.50;65.00
23114;DHT22;11726;50.122;8.832;2023-06-26T15:38:07;28.80;64.20
23114;DHT22;11726;50.122;8.832;2023-06-26T15:40:34;28.60;63.20
23114;DHT22;11726;50.122;8.832;2023-06-26T15:43:00;28.80;61.70
23114;DHT22;11726;50.122;8.832;2023-06-26T15:45:27;29.30;60.70